createdAt,value
2023-02-23T00:01:43.754Z,17.10
2023-02-23T00:04:11.490Z,16.20
2023-02-23T00:06:39.706Z,14.70
2023-02-23T00:09:23.300Z,14.37
2023-02-23T00:11:51.729Z,14.37
2023-02-23T00:14:19.518Z,14.77
2023-02-23T00:16:47.254Z,13.80
2023-02-23T00:19:14.977Z,14.00
2023-02-23T00:21:43.669Z,13.60
2023-02-23T00:24:15.594Z,14.00
2023-02-23T00:26:43.501Z,13.43
2023-02-23T00:29:17.134Z,12.97
2023-02-23T00:31:45.418Z,12.90
2023-02-23T00:34:14.493Z,12.73
2023-02-23T00:36:44.227Z,12.20
2023-02-23T00:39:18.538Z,11.10
2023-02-23T00:41:46.664Z,12.27
2023-02-23T00:44:15.884Z,11.73
2023-02-23T00:46:44.322Z,11.80
2023-02-23T00:49:13.453Z,11.27
2023-02-23T00:51:41.361Z,11.33
2023-02-23T00:54:09.672Z,11.70
2023-02-23T00:56:39.893Z,10.73
2023-02-23T00:59:08.280Z,10.37
2023-02-23T01:01:37.438Z,10.17
2023-02-23T01:04:05.681Z,10.07
2023-02-23T01:06:33.554Z,10.53
2023-02-23T01:09:05.322Z,10.40
2023-02-23T01:11:32.933Z,10.43
2023-02-23T01:14:02.537Z,9.57
2023-02-23T01:16:32.205Z,9.83
2023-02-23T01:19:03.478Z,9.87
2023-02-23T01:21:34.201Z,9.67
2023-02-23T01:24:02.338Z,9.77
2023-02-23T01:26:33.957Z,8.20
2023-02-23T01:29:08.639Z,10.03
2023-02-23T01:31:37.304Z,9.73
2023-02-23T01:34:06.419Z,9.27
2023-02-23T01:36:37.046Z,9.37
2023-02-23T01:39:07.621Z,9.10
2023-02-23T01:41:36.558Z,8.17
2023-02-23T01:44:07.553Z,7.87
2023-02-23T01:46:36.622Z,8.17
2023-02-23T01:49:05.188Z,8.90
2023-02-23T01:51:42.936Z,8.90
2023-02-23T01:54:14.527Z,7.97
2023-02-23T01:56:45.824Z,6.97
2023-02-23T01:59:16.659Z,8.57
2023-02-23T02:01:45.426Z,7.93
2023-02-23T02:04:16.650Z,7.27
2023-02-23T02:06:47.478Z,8.47
2023-02-23T02:09:18.244Z,9.00
2023-02-23T02:11:54.052Z,9.60
2023-02-23T02:14:26.491Z,9.03
2023-02-23T02:17:07.699Z,8.30
2023-02-23T02:20:12.710Z,7.93
2023-02-23T02:23:15.535Z,7.93
2023-02-23T02:25:58.184Z,8.10
2023-02-23T02:29:01.302Z,8.47
2023-02-23T02:31:58.704Z,7.60
2023-02-23T02:35:18.925Z,7.90
2023-02-23T02:38:19.248Z,7.83
2023-02-23T02:40:58.875Z,8.87
2023-02-23T02:43:38.372Z,8.63
2023-02-23T02:46:15.227Z,9.20
2023-02-23T02:48:50.772Z,8.77
2023-02-23T02:51:25.240Z,8.47
2023-02-23T02:54:06.728Z,8.20
2023-02-23T02:56:40.374Z,8.50
2023-02-23T02:59:28.745Z,9.07
2023-02-23T03:02:14.227Z,9.63
2023-02-23T03:04:59.683Z,10.00
2023-02-23T03:07:50.034Z,8.70
2023-02-23T03:10:45.383Z,10.27
2023-02-23T03:13:41.098Z,8.87
2023-02-23T03:16:35.472Z,9.97
2023-02-23T03:19:32.444Z,10.23
2023-02-23T03:22:26.911Z,10.93
2023-02-23T03:25:18.668Z,11.73
2023-02-23T03:28:07.547Z,10.90
2023-02-23T03:31:05.543Z,11.03
2023-02-23T03:33:57.307Z,11.10
2023-02-23T03:36:46.261Z,10.20
2023-02-23T03:39:41.099Z,10.77
2023-02-23T03:42:31.348Z,10.93
2023-02-23T03:45:18.617Z,10.40
2023-02-23T03:48:05.868Z,10.90
2023-02-23T03:50:56.863Z,11.00
2023-02-23T03:53:48.206Z,10.80
2023-02-23T03:56:37.065Z,11.27
2023-02-23T03:59:25.260Z,10.83
2023-02-23T04:02:13.665Z,10.50
2023-02-23T04:05:03.960Z,10.27
2023-02-23T04:07:50.247Z,10.60
2023-02-23T04:10:36.162Z,10.17
2023-02-23T04:13:16.286Z,13.63
2023-02-23T04:15:54.150Z,10.37
2023-02-23T04:18:24.683Z,12.53
2023-02-23T04:20:54.587Z,14.10
2023-02-23T04:23:22.893Z,12.20
2023-02-23T04:25:50.695Z,11.97
2023-02-23T04:28:18.507Z,11.13
2023-02-23T04:30:46.236Z,12.60
2023-02-23T04:33:13.935Z,11.30
2023-02-23T04:35:41.800Z,12.80
2023-02-23T04:38:10.853Z,12.77
2023-02-23T04:40:38.564Z,11.60
2023-02-23T04:43:06.195Z,13.33
2023-02-23T04:45:34.548Z,13.90
2023-02-23T04:48:02.180Z,15.07
2023-02-23T04:50:32.510Z,15.50
2023-02-23T04:53:00.368Z,14.57
2023-02-23T04:55:29.581Z,12.70
2023-02-23T04:58:00.274Z,13.87
2023-02-23T05:00:29.384Z,16.47
2023-02-23T05:02:57.122Z,16.03
2023-02-23T05:05:24.735Z,15.97
2023-02-23T05:07:53.637Z,16.97
2023-02-23T05:10:21.461Z,15.53
2023-02-23T05:12:50.466Z,17.40
2023-02-23T05:15:18.434Z,16.53
2023-02-23T05:17:46.040Z,17.87
2023-02-23T05:20:14.848Z,17.87
2023-02-23T05:22:42.644Z,20.73
2023-02-23T05:25:11.848Z,20.00
2023-02-23T05:27:39.533Z,16.80
2023-02-23T05:30:10.560Z,18.50
2023-02-23T05:32:38.175Z,16.77
2023-02-23T05:35:07.091Z,19.70
2023-02-23T05:37:34.835Z,20.10
2023-02-23T05:40:02.443Z,20.63
2023-02-23T05:42:30.065Z,22.83
2023-02-23T05:44:57.675Z,21.63
2023-02-23T05:47:26.645Z,22.43
2023-02-23T05:49:54.255Z,23.63
2023-02-23T05:52:21.841Z,24.50
2023-02-23T05:54:49.795Z,22.43
2023-02-23T05:57:17.438Z,23.07
2023-02-23T05:59:45.021Z,24.70
2023-02-23T06:02:12.673Z,20.53
2023-02-23T06:04:42.584Z,23.20
2023-02-23T06:07:10.254Z,25.80
2023-02-23T06:09:37.860Z,25.57
2023-02-23T06:12:05.926Z,26.07
2023-02-23T06:14:35.143Z,27.07
2023-02-23T06:17:02.849Z,28.67
2023-02-23T06:19:31.714Z,27.00
2023-02-23T06:22:00.723Z,27.23
2023-02-23T06:24:28.373Z,28.40
2023-02-23T06:26:55.953Z,30.97
2023-02-23T06:29:23.643Z,41.23
2023-02-23T06:31:51.329Z,37.53
2023-02-23T06:34:19.341Z,37.33
2023-02-23T06:36:46.963Z,42.87
2023-02-23T06:39:15.931Z,36.23
2023-02-23T06:41:43.724Z,32.70
2023-02-23T06:44:11.326Z,36.87
2023-02-23T06:46:38.994Z,32.17
2023-02-23T06:49:06.601Z,38.73
2023-02-23T06:51:34.215Z,38.10
2023-02-23T06:54:01.789Z,37.00
2023-02-23T06:56:30.749Z,33.07
2023-02-23T06:58:58.329Z,31.03
2023-02-23T07:01:25.964Z,30.73
2023-02-23T07:03:53.639Z,28.93
2023-02-23T07:06:21.291Z,35.10
2023-02-23T07:08:48.866Z,30.47
2023-02-23T07:11:19.186Z,30.77
2023-02-23T07:13:48.385Z,31.20
2023-02-23T07:16:16.375Z,31.13
2023-02-23T07:18:44.078Z,31.13
2023-02-23T07:21:11.741Z,34.93
2023-02-23T07:23:39.436Z,30.10
2023-02-23T07:26:07.055Z,31.43
2023-02-23T07:28:34.637Z,31.10
2023-02-23T07:31:03.743Z,35.00
2023-02-23T07:33:32.511Z,38.00
2023-02-23T07:36:00.136Z,42.43
2023-02-23T07:38:28.612Z,41.80
2023-02-23T07:40:56.388Z,34.97
2023-02-23T07:43:24.186Z,32.30
2023-02-23T07:45:52.209Z,33.13
2023-02-23T07:48:22.348Z,33.07
2023-02-23T07:50:49.963Z,31.43
2023-02-23T07:53:17.578Z,31.53
2023-02-23T07:55:45.229Z,32.97
2023-02-23T07:58:13.526Z,32.00
2023-02-23T08:00:41.335Z,32.87
2023-02-23T08:03:08.974Z,31.00
2023-02-23T08:05:40.077Z,31.67
2023-02-23T08:08:07.921Z,29.80
2023-02-23T08:10:35.538Z,30.10
2023-02-23T08:13:03.203Z,31.20
2023-02-23T08:15:31.686Z,28.73
2023-02-23T08:17:59.557Z,29.50
2023-02-23T08:20:28.169Z,25.97
2023-02-23T08:22:57.528Z,30.03
2023-02-23T08:25:27.282Z,29.40
2023-02-23T08:27:55.517Z,29.73
2023-02-23T08:30:24.559Z,33.37
2023-02-23T08:32:52.341Z,30.87
2023-02-23T08:35:20.257Z,32.63
2023-02-23T08:37:47.965Z,30.07
2023-02-23T08:40:18.291Z,35.63
2023-02-23T08:42:46.089Z,33.70
2023-02-23T08:45:14.136Z,33.57
2023-02-23T08:47:41.840Z,35.33
2023-02-23T08:50:11.165Z,33.20
2023-02-23T08:52:39.098Z,35.97
2023-02-23T08:55:08.344Z,34.93
2023-02-23T08:57:38.062Z,34.13
2023-02-23T09:00:13.948Z,34.63
2023-02-23T09:02:42.003Z,34.63
2023-02-23T09:05:10.810Z,35.93
2023-02-23T09:07:39.521Z,35.80
2023-02-23T09:10:08.681Z,37.63
2023-02-23T09:12:37.630Z,37.77
2023-02-23T09:15:06.111Z,37.47
2023-02-23T09:17:33.723Z,39.20
2023-02-23T09:20:02.003Z,37.90
2023-02-23T09:22:29.627Z,37.53
2023-02-23T09:24:57.212Z,37.83
2023-02-23T09:27:24.843Z,37.03
2023-02-23T09:29:53.823Z,37.73
2023-02-23T09:32:21.634Z,38.93
2023-02-23T09:34:49.697Z,40.87
2023-02-23T09:37:17.479Z,38.23
2023-02-23T09:39:45.690Z,43.87
2023-02-23T09:42:35.219Z,42.50
2023-02-23T09:45:13.517Z,49.23
2023-02-23T09:47:50.916Z,50.77
2023-02-23T09:50:23.553Z,54.07
2023-02-23T09:52:56.715Z,55.63
2023-02-23T09:55:24.931Z,55.23
2023-02-23T09:57:53.436Z,55.80
2023-02-23T10:00:25.319Z,56.00
2023-02-23T10:03:04.519Z,54.23
2023-02-23T10:05:38.086Z,56.07
2023-02-23T10:08:10.044Z,58.73
2023-02-23T10:10:48.255Z,56.33
2023-02-23T10:13:23.592Z,56.57
2023-02-23T10:15:57.578Z,58.67
2023-02-23T10:18:45.684Z,57.93
2023-02-23T10:21:18.251Z,53.50
2023-02-23T10:23:52.303Z,56.73
2023-02-23T10:26:24.152Z,54.47
2023-02-23T10:28:55.052Z,54.50
2023-02-23T10:31:34.522Z,52.67
2023-02-23T10:34:10.573Z,53.57
2023-02-23T10:36:42.256Z,51.83
2023-02-23T10:39:10.777Z,51.77
2023-02-23T10:41:39.460Z,52.50
2023-02-23T10:44:18.309Z,51.53
2023-02-23T10:46:54.738Z,48.93
2023-02-23T10:49:30.311Z,50.60
2023-02-23T10:52:02.815Z,48.37
2023-02-23T10:54:44.590Z,46.43
2023-02-23T10:57:19.857Z,45.37
2023-02-23T11:00:02.491Z,45.13
2023-02-23T11:02:31.895Z,45.10
2023-02-23T11:05:01.651Z,45.57
2023-02-23T11:07:31.507Z,49.10
2023-02-23T11:09:59.619Z,45.60
2023-02-23T11:12:36.913Z,42.97
2023-02-23T11:15:46.339Z,44.90
2023-02-23T11:18:24.439Z,47.50
2023-02-23T11:20:52.823Z,45.67
2023-02-23T11:23:24.624Z,45.23
2023-02-23T11:25:55.739Z,46.10
2023-02-23T11:28:30.231Z,46.50
2023-02-23T11:31:01.868Z,44.60
2023-02-23T11:33:35.903Z,42.50
2023-02-23T11:36:18.125Z,41.50
2023-02-23T11:38:47.483Z,41.07
2023-02-23T11:41:23.439Z,40.63
2023-02-23T11:43:52.017Z,40.37
2023-02-23T11:46:22.496Z,39.47
2023-02-23T11:48:57.369Z,40.07
2023-02-23T11:51:27.697Z,39.30
2023-02-23T11:53:55.755Z,39.57
2023-02-23T11:56:25.656Z,36.43
2023-02-23T11:58:56.336Z,37.43
2023-02-23T12:01:35.832Z,38.20
2023-02-23T12:04:05.759Z,37.03
2023-02-23T12:06:35.872Z,35.17
2023-02-23T12:09:13.237Z,38.60
2023-02-23T12:11:48.698Z,34.83
2023-02-23T12:14:26.895Z,35.27
2023-02-23T12:16:58.280Z,36.17
2023-02-23T12:19:31.124Z,35.93
2023-02-23T12:22:04.443Z,35.10
2023-02-23T12:24:44.350Z,33.93
2023-02-23T12:27:16.518Z,35.00
2023-02-23T12:30:06.330Z,32.43
2023-02-23T12:32:45.169Z,34.67
2023-02-23T12:35:19.687Z,33.57
2023-02-23T12:37:50.820Z,32.93
2023-02-23T12:40:22.586Z,33.77
2023-02-23T12:43:00.374Z,32.37
2023-02-23T12:45:34.969Z,32.43
2023-02-23T12:48:12.783Z,32.33
2023-02-23T12:50:48.232Z,32.13
2023-02-23T12:53:22.798Z,31.50
2023-02-23T12:56:13.562Z,32.87
2023-02-23T12:58:49.355Z,31.07
2023-02-23T13:01:22.066Z,31.23
2023-02-23T13:04:13.871Z,32.40
2023-02-23T13:06:54.554Z,32.93
2023-02-23T13:09:35.037Z,30.53
2023-02-23T13:12:15.640Z,32.97
2023-02-23T13:14:50.900Z,31.77
2023-02-23T13:17:32.964Z,31.90
2023-02-23T13:20:04.436Z,31.57
2023-02-23T13:22:38.697Z,31.17
2023-02-23T13:25:21.206Z,30.70
2023-02-23T13:27:56.636Z,31.37
2023-02-23T13:30:24.466Z,31.20
2023-02-23T13:32:53.169Z,30.83
2023-02-23T13:35:21.881Z,28.20
2023-02-23T13:37:54.056Z,30.30
2023-02-23T13:40:31.914Z,30.63
2023-02-23T13:43:17.673Z,31.77
2023-02-23T13:46:06.647Z,29.97
2023-02-23T13:48:56.253Z,29.37
2023-02-23T13:51:33.439Z,28.43
2023-02-23T13:54:06.666Z,27.90
2023-02-23T13:56:42.986Z,23.90
2023-02-23T13:59:18.339Z,19.53
2023-02-23T14:01:48.926Z,20.10
2023-02-23T14:04:22.553Z,17.93
2023-02-23T14:06:56.469Z,17.07
2023-02-23T14:09:31.464Z,15.63
2023-02-23T14:12:07.093Z,14.47
2023-02-23T14:14:44.340Z,14.30
2023-02-23T14:17:27.838Z,13.77
2023-02-23T14:20:24.353Z,14.07
2023-02-23T14:23:34.260Z,12.07
2023-02-23T14:26:18.490Z,14.57
2023-02-23T14:28:50.287Z,14.60
2023-02-23T14:31:22.184Z,14.27
2023-02-23T14:33:53.328Z,14.40
2023-02-23T14:36:38.643Z,13.23
2023-02-23T14:39:11.255Z,13.97
2023-02-23T14:41:47.140Z,14.40
2023-02-23T14:44:28.208Z,13.77
2023-02-23T14:47:01.330Z,13.57
2023-02-23T14:49:34.921Z,14.37
2023-02-23T14:52:07.905Z,14.47
2023-02-23T14:54:37.299Z,14.17
2023-02-23T14:57:08.628Z,15.00
2023-02-23T14:59:41.075Z,13.60
2023-02-23T15:02:11.044Z,14.37
2023-02-23T15:04:39.739Z,16.37
2023-02-23T15:07:08.708Z,15.43
2023-02-23T15:09:39.314Z,15.93
2023-02-23T15:12:16.973Z,16.73
2023-02-23T15:14:46.287Z,15.60
2023-02-23T15:17:17.267Z,15.40
2023-02-23T15:19:46.184Z,15.03
2023-02-23T15:22:24.025Z,16.03
2023-02-23T15:24:52.069Z,15.33
2023-02-23T15:27:26.934Z,17.63
2023-02-23T15:29:55.375Z,16.80
2023-02-23T15:32:24.960Z,15.63
2023-02-23T15:34:53.899Z,15.77
2023-02-23T15:37:30.707Z,15.80
2023-02-23T15:40:02.373Z,16.10
2023-02-23T15:42:37.173Z,15.10
2023-02-23T15:45:14.184Z,13.93
2023-02-23T15:47:41.936Z,15.53
2023-02-23T15:50:20.123Z,17.40
2023-02-23T15:53:00.400Z,16.43
2023-02-23T15:55:34.627Z,16.57
2023-02-23T15:58:15.257Z,18.00
2023-02-23T16:00:44.503Z,17.50
2023-02-23T16:03:25.015Z,17.43
2023-02-23T16:06:00.746Z,17.40
2023-02-23T16:08:29.627Z,17.70
2023-02-23T16:11:05.672Z,14.17
2023-02-23T16:13:34.787Z,12.83
2023-02-23T16:16:02.609Z,12.40
2023-02-23T16:18:39.102Z,9.07
2023-02-23T16:21:07.696Z,7.83
2023-02-23T16:23:37.988Z,8.10
2023-02-23T16:26:12.018Z,7.93
2023-02-23T16:28:46.304Z,7.47
2023-02-23T16:31:21.069Z,8.07
2023-02-23T16:33:54.497Z,8.80
2023-02-23T16:36:24.685Z,8.50
2023-02-23T16:39:00.641Z,8.27
2023-02-23T16:41:31.951Z,9.33
2023-02-23T16:44:03.060Z,8.83
2023-02-23T16:46:33.204Z,7.93
2023-02-23T16:49:10.204Z,9.40
2023-02-23T16:51:37.991Z,8.33
2023-02-23T16:54:06.831Z,8.10
2023-02-23T16:56:35.709Z,7.20
2023-02-23T16:59:05.161Z,8.03
2023-02-23T17:01:32.783Z,7.70
2023-02-23T17:04:00.391Z,7.93
2023-02-23T17:06:28.208Z,8.60
2023-02-23T17:08:58.924Z,8.07
2023-02-23T17:11:27.127Z,5.80
2023-02-23T17:13:54.741Z,6.07
2023-02-23T17:16:24.290Z,6.67
2023-02-23T17:18:52.064Z,6.37
2023-02-23T17:21:23.666Z,6.37
2023-02-23T17:23:52.437Z,5.37
2023-02-23T17:26:24.881Z,5.43
2023-02-23T17:28:53.886Z,6.00
2023-02-23T17:31:25.802Z,5.57
2023-02-23T17:33:55.250Z,4.87
2023-02-23T17:36:23.762Z,5.80
2023-02-23T17:38:58.361Z,5.27
2023-02-23T17:41:27.060Z,5.17
2023-02-23T17:43:54.658Z,5.10
2023-02-23T17:46:24.017Z,4.70
2023-02-23T17:48:52.745Z,4.90
2023-02-23T17:51:21.929Z,4.83
2023-02-23T17:53:49.931Z,5.57
2023-02-23T17:56:17.859Z,6.17
2023-02-23T17:58:45.717Z,5.60
2023-02-23T18:01:13.491Z,5.23
2023-02-23T18:03:42.595Z,4.67
2023-02-23T18:06:12.305Z,4.70
2023-02-23T18:08:42.994Z,4.33
2023-02-23T18:11:11.276Z,5.33
2023-02-23T18:13:39.325Z,4.70
2023-02-23T18:16:10.344Z,6.50
2023-02-23T18:18:39.456Z,7.00
2023-02-23T18:21:17.341Z,7.37
2023-02-23T18:23:45.284Z,7.23
2023-02-23T18:26:16.585Z,5.77
2023-02-23T18:28:45.776Z,5.13
2023-02-23T18:31:15.495Z,5.23
2023-02-23T18:33:44.749Z,4.30
2023-02-23T18:36:20.613Z,4.90
2023-02-23T18:38:48.580Z,4.67
2023-02-23T18:41:16.951Z,4.10
2023-02-23T18:43:44.722Z,4.40
2023-02-23T18:46:14.131Z,5.30
2023-02-23T18:48:43.089Z,4.73
2023-02-23T18:51:14.061Z,3.97
2023-02-23T18:53:44.551Z,3.60
2023-02-23T18:56:14.265Z,4.30
2023-02-23T18:58:43.034Z,4.10
2023-02-23T19:01:18.005Z,4.77
2023-02-23T19:03:46.063Z,4.87
2023-02-23T19:06:15.894Z,4.70
2023-02-23T19:08:45.808Z,4.67
2023-02-23T19:11:13.437Z,4.00
2023-02-23T19:13:41.103Z,4.37
2023-02-23T19:16:09.632Z,4.57
2023-02-23T19:18:37.671Z,5.03
2023-02-23T19:21:06.715Z,4.27
2023-02-23T19:23:34.370Z,4.37
2023-02-23T19:26:03.372Z,4.00
2023-02-23T19:28:30.963Z,4.67
2023-02-23T19:31:03.547Z,5.03
2023-02-23T19:33:31.350Z,4.60
2023-02-23T19:36:00.897Z,3.87
2023-02-23T19:38:28.748Z,4.30
2023-02-23T19:40:57.295Z,4.20
2023-02-23T19:43:26.520Z,4.20
2023-02-23T19:45:54.588Z,4.83
2023-02-23T19:48:25.228Z,4.40
2023-02-23T19:50:53.710Z,4.00
2023-02-23T19:53:21.494Z,4.00
2023-02-23T19:55:49.655Z,3.83
2023-02-23T19:58:17.864Z,3.17
2023-02-23T20:00:47.130Z,3.70
2023-02-23T20:03:19.799Z,4.27
2023-02-23T20:05:47.514Z,3.93
2023-02-23T20:08:19.239Z,4.20
2023-02-23T20:10:46.844Z,3.57
2023-02-23T20:13:14.464Z,4.07
2023-02-23T20:15:42.154Z,4.20
2023-02-23T20:18:11.209Z,4.47
2023-02-23T20:20:40.090Z,3.90
2023-02-23T20:23:08.736Z,3.63
2023-02-23T20:25:37.081Z,4.87
2023-02-23T20:28:07.892Z,5.47
2023-02-23T20:30:35.688Z,3.53
2023-02-23T20:33:05.743Z,3.60
2023-02-23T20:35:35.818Z,4.13
2023-02-23T20:38:04.095Z,4.37
2023-02-23T20:40:32.134Z,4.57
2023-02-23T20:42:59.722Z,4.17
2023-02-23T20:45:27.353Z,4.10
2023-02-23T20:47:55.582Z,3.47
2023-02-23T20:50:28.422Z,3.60
2023-02-23T20:52:57.452Z,3.70
2023-02-23T20:55:27.122Z,4.17
2023-02-23T20:57:55.894Z,3.60
2023-02-23T21:00:32.135Z,3.03
2023-02-23T21:03:01.864Z,4.53
2023-02-23T21:05:32.337Z,4.13
2023-02-23T21:08:02.406Z,3.33
2023-02-23T21:10:31.952Z,3.83
2023-02-23T21:13:00.273Z,4.33
2023-02-23T21:15:29.995Z,2.97
2023-02-23T21:17:59.008Z,3.10
2023-02-23T21:20:27.855Z,4.00
2023-02-23T21:22:56.084Z,3.87
2023-02-23T21:25:27.920Z,3.33
2023-02-23T21:27:55.861Z,2.80
2023-02-23T21:30:28.461Z,3.50
2023-02-23T21:32:57.363Z,3.03
2023-02-23T21:35:25.674Z,2.80
2023-02-23T21:37:53.835Z,3.10
2023-02-23T21:40:22.211Z,3.10
2023-02-23T21:42:51.981Z,2.70
2023-02-23T21:45:20.531Z,3.23
2023-02-23T21:47:49.451Z,2.80
2023-02-23T21:50:19.551Z,3.00
2023-02-23T21:52:48.618Z,3.03
2023-02-23T21:55:21.917Z,3.77
2023-02-23T21:57:52.785Z,3.20
2023-02-23T22:00:20.788Z,3.80
2023-02-23T22:02:48.730Z,3.67
2023-02-23T22:05:17.775Z,3.50
2023-02-23T22:07:49.814Z,4.10
2023-02-23T22:10:18.051Z,2.80
2023-02-23T22:12:45.670Z,2.90
2023-02-23T22:15:16.727Z,3.17
2023-02-23T22:17:44.963Z,3.03
2023-02-23T22:20:13.507Z,2.80
2023-02-23T22:22:42.818Z,3.10
2023-02-23T22:25:11.026Z,3.13
2023-02-23T22:27:41.546Z,2.90
2023-02-23T22:30:12.122Z,2.50
2023-02-23T22:32:42.510Z,3.10
2023-02-23T22:35:11.287Z,2.40
2023-02-23T22:37:39.433Z,2.67
2023-02-23T22:40:16.389Z,2.60
2023-02-23T22:42:48.114Z,2.43
2023-02-23T22:45:16.999Z,2.73
2023-02-23T22:47:46.054Z,2.17
2023-02-23T22:50:17.896Z,2.97
2023-02-23T22:52:46.265Z,2.70
2023-02-23T22:55:13.997Z,3.10
2023-02-23T22:57:41.594Z,2.67
2023-02-23T23:00:11.229Z,2.63
2023-02-23T23:02:38.961Z,2.87
2023-02-23T23:05:09.413Z,2.50
2023-02-23T23:07:37.044Z,2.57
2023-02-23T23:10:05.648Z,3.23
2023-02-23T23:12:34.240Z,2.47
2023-02-23T23:15:02.373Z,2.87
2023-02-23T23:17:31.024Z,2.27
2023-02-23T23:20:00.215Z,2.47
2023-02-23T23:22:29.261Z,2.00
2023-02-23T23:24:57.025Z,2.53
2023-02-23T23:27:25.051Z,2.77
2023-02-23T23:29:52.667Z,2.20
2023-02-23T23:32:27.372Z,2.73
2023-02-23T23:34:57.520Z,2.10
2023-02-23T23:37:28.907Z,2.20
2023-02-23T23:40:00.144Z,2.17
2023-02-23T23:42:27.907Z,2.13
2023-02-23T23:44:56.868Z,2.30
2023-02-23T23:47:25.866Z,2.20
2023-02-23T23:49:54.556Z,1.93
2023-02-23T23:52:22.227Z,2.23
2023-02-23T23:54:49.935Z,2.20
2023-02-23T23:57:18.954Z,2.30
2023-02-23T23:59:48.594Z,1.90
